createdAt,value
2022-11-15T07:04:04.165Z,22.58
2022-11-15T07:07:23.467Z,21.02
2022-11-15T07:10:43.331Z,20.17
2022-11-15T07:14:02.883Z,24.77
2022-11-15T07:17:22.620Z,23.48
2022-11-15T07:20:41.728Z,19.73
2022-11-15T07:24:00.755Z,19.65
2022-11-15T07:27:20.086Z,24.13
2022-11-15T07:30:44.085Z,26.48
2022-11-15T07:34:04.710Z,20.77
2022-11-15T07:37:24.037Z,25.17
2022-11-15T07:40:43.216Z,24.65
2022-11-15T07:44:02.797Z,23.02
2022-11-15T07:47:22.363Z,22.70
2022-11-15T07:50:44.689Z,20.77
2022-11-15T07:54:03.813Z,19.83
2022-11-15T07:57:23.258Z,18.67
2022-11-15T08:00:42.948Z,17.33
2022-11-15T08:04:02.158Z,17.33
2022-11-15T08:07:21.573Z,15.52
2022-11-15T08:10:41.743Z,17.05
2022-11-15T08:14:00.997Z,20.77
2022-11-15T08:17:20.153Z,27.10
2022-11-15T08:20:39.984Z,30.52
2022-11-15T08:23:59.086Z,24.35
2022-11-15T08:27:18.236Z,33.42
2022-11-15T08:30:43.206Z,35.63
2022-11-15T08:34:03.854Z,32.28
2022-11-15T08:37:23.422Z,27.65
2022-11-15T08:40:42.697Z,26.05
2022-11-15T08:44:01.724Z,29.33
2022-11-15T08:47:20.751Z,42.17
2022-11-15T08:50:40.047Z,25.35
2022-11-15T08:53:59.474Z,25.23
2022-11-15T08:57:19.355Z,28.70
2022-11-15T09:00:38.568Z,24.75
2022-11-15T09:03:57.921Z,30.17
2022-11-15T09:07:17.782Z,35.50
2022-11-15T09:10:37.641Z,30.55
2022-11-15T09:13:57.049Z,34.25
2022-11-15T09:17:19.194Z,57.97
2022-11-15T09:20:43.371Z,37.08
2022-11-15T09:24:03.400Z,28.30
2022-11-15T09:27:23.176Z,24.85
2022-11-15T09:30:42.963Z,25.75
2022-11-15T09:34:02.608Z,24.48
2022-11-15T09:37:21.550Z,21.88
2022-11-15T09:40:41.256Z,25.58
2022-11-15T09:44:25.575Z,22.98
2022-11-15T09:48:00.651Z,19.70
2022-11-15T09:51:35.994Z,19.65
2022-11-15T09:54:56.003Z,18.10
2022-11-15T09:58:34.750Z,18.80
2022-11-15T10:02:06.147Z,17.90
2022-11-15T10:05:14.105Z,18.33
2022-11-15T10:08:39.972Z,16.67
2022-11-15T10:11:42.072Z,13.15
2022-11-15T10:14:44.207Z,12.98
2022-11-15T10:18:30.227Z,11.32
2022-11-15T10:22:10.688Z,10.65
2022-11-15T10:25:33.381Z,9.27
2022-11-15T10:28:34.910Z,10.80
2022-11-15T10:31:42.678Z,10.75
2022-11-15T10:34:43.587Z,10.43
2022-11-15T10:37:44.742Z,10.60
2022-11-15T10:40:46.261Z,11.30
2022-11-15T10:44:08.195Z,10.63
2022-11-15T10:47:39.173Z,11.85
2022-11-15T10:50:46.957Z,9.88
2022-11-15T10:53:48.320Z,10.40
2022-11-15T10:56:56.150Z,11.65
2022-11-15T11:00:02.048Z,12.43
2022-11-15T11:03:21.759Z,9.10
2022-11-15T11:06:22.882Z,11.35
2022-11-15T11:09:34.040Z,9.55
2022-11-15T11:12:35.876Z,10.27
2022-11-15T11:15:36.749Z,8.65
2022-11-15T11:19:15.578Z,9.50
2022-11-15T11:22:46.535Z,9.55
2022-11-15T11:26:08.876Z,10.02
2022-11-15T11:29:56.862Z,8.75
2022-11-15T11:33:11.441Z,9.32
2022-11-15T11:36:38.222Z,9.18
2022-11-15T11:40:11.084Z,9.45
2022-11-15T11:43:46.917Z,7.75
2022-11-15T11:46:56.662Z,6.95
2022-11-15T11:50:15.446Z,6.78
2022-11-15T11:53:40.995Z,7.10
2022-11-15T11:56:46.361Z,7.07
2022-11-15T12:00:19.902Z,6.80
2022-11-15T12:03:55.786Z,7.00
2022-11-15T12:07:25.688Z,6.95
2022-11-15T12:10:33.575Z,5.90
2022-11-15T12:13:37.845Z,6.60
2022-11-15T12:16:43.393Z,5.70
2022-11-15T12:19:44.858Z,6.22
2022-11-15T12:23:10.264Z,6.72
2022-11-15T12:26:33.968Z,5.68
2022-11-15T12:29:49.979Z,6.25
2022-11-15T12:33:02.784Z,6.00
2022-11-15T12:36:21.258Z,6.05
2022-11-15T12:39:42.119Z,6.10
2022-11-15T12:43:02.073Z,5.95
2022-11-15T12:46:11.655Z,5.15
2022-11-15T12:49:32.814Z,5.63
2022-11-15T12:52:33.595Z,5.90
2022-11-15T12:55:34.871Z,6.00
2022-11-15T12:58:49.469Z,7.15
2022-11-15T13:01:51.508Z,7.40
2022-11-15T13:04:56.902Z,7.18
2022-11-15T13:07:59.931Z,7.85
2022-11-15T13:11:43.617Z,7.90
2022-11-15T13:14:49.761Z,8.50
2022-11-15T13:17:56.965Z,7.28
2022-11-15T13:21:02.336Z,7.20
2022-11-15T13:24:04.626Z,7.90
2022-11-15T13:27:20.529Z,9.75
2022-11-15T13:30:26.628Z,10.85
2022-11-15T13:33:40.279Z,13.93
2022-11-15T13:36:41.153Z,15.63
2022-11-15T13:39:42.010Z,16.40
2022-11-15T13:42:45.771Z,16.25
2022-11-15T13:45:47.012Z,16.98
2022-11-15T13:49:01.684Z,16.85
2022-11-15T13:52:07.394Z,18.10
2022-11-15T13:55:18.505Z,18.85
2022-11-15T13:58:24.052Z,18.25
2022-11-15T14:01:32.409Z,18.83
2022-11-15T14:04:49.168Z,17.30
2022-11-15T14:08:24.958Z,18.90
2022-11-15T14:11:26.509Z,20.05
2022-11-15T14:14:31.894Z,20.50
2022-11-15T14:17:37.049Z,20.63
2022-11-15T14:20:40.544Z,20.60
2022-11-15T14:23:41.834Z,21.33
2022-11-15T14:26:43.298Z,22.02
2022-11-15T14:29:44.029Z,22.38
2022-11-15T14:32:51.225Z,22.60
2022-11-15T14:35:53.998Z,25.38
2022-11-15T14:38:55.497Z,23.92
2022-11-15T14:41:56.693Z,24.98
2022-11-15T14:44:58.211Z,24.50
2022-11-15T14:47:59.378Z,25.85
2022-11-15T14:51:00.544Z,26.50
2022-11-15T14:54:01.299Z,26.25
2022-11-15T14:57:01.953Z,25.95
2022-11-15T15:00:04.377Z,24.17
2022-11-15T15:03:14.278Z,22.55
2022-11-15T15:06:18.334Z,20.20
2022-11-15T15:09:19.710Z,18.80
2022-11-15T15:12:24.626Z,17.42
2022-11-15T15:15:37.982Z,14.77
2022-11-15T15:18:39.033Z,13.40
2022-11-15T15:21:39.897Z,12.70
